createdAt,value
2022-08-01T00:00:52.326Z,6.75
2022-08-01T00:03:19.501Z,9.68
2022-08-01T00:05:47.566Z,5.35
2022-08-01T00:08:14.786Z,7.25
2022-08-01T00:10:42.001Z,5.55
2022-08-01T00:13:10.536Z,7.65
2022-08-01T00:15:38.126Z,6.43
2022-08-01T00:18:05.356Z,7.18
2022-08-01T00:20:32.607Z,6.47
2022-08-01T00:22:59.805Z,7.75
2022-08-01T00:25:33.912Z,8.35
2022-08-01T00:28:02.380Z,8.55
2022-08-01T00:30:31.933Z,9.38
2022-08-01T00:32:59.113Z,6.53
2022-08-01T00:35:26.458Z,6.28
2022-08-01T00:37:53.863Z,9.20
2022-08-01T00:40:21.541Z,6.88
2022-08-01T00:42:48.666Z,6.30
2022-08-01T00:45:16.165Z,6.60
2022-08-01T00:47:43.362Z,6.95
2022-08-01T00:50:11.468Z,6.15
2022-08-01T00:52:43.581Z,5.45
2022-08-01T00:55:20.232Z,6.85
2022-08-01T00:58:03.454Z,5.38
2022-08-01T01:00:42.446Z,5.85
2022-08-01T01:03:23.576Z,6.35
2022-08-01T01:06:22.065Z,4.93
2022-08-01T01:09:04.554Z,6.22
2022-08-01T01:11:51.997Z,6.55
2022-08-01T01:14:35.934Z,6.00
2022-08-01T01:17:08.227Z,7.85
2022-08-01T01:19:44.173Z,6.05
2022-08-01T01:22:54.506Z,6.10
2022-08-01T01:25:46.798Z,5.93
2022-08-01T01:28:36.432Z,7.25
2022-08-01T01:31:07.416Z,6.82
2022-08-01T01:33:47.168Z,6.32
2022-08-01T01:36:17.673Z,6.10
2022-08-01T01:38:46.750Z,6.43
2022-08-01T01:41:17.243Z,6.00
2022-08-01T01:43:46.928Z,5.47
2022-08-01T01:46:18.461Z,6.25
2022-08-01T01:48:47.401Z,9.27
2022-08-01T01:51:17.218Z,5.20
2022-08-01T01:53:45.549Z,5.63
2022-08-01T01:56:14.976Z,5.70
2022-08-01T01:58:44.122Z,5.22
2022-08-01T02:01:14.765Z,6.13
2022-08-01T02:03:44.195Z,6.25
2022-08-01T02:06:14.657Z,11.55
2022-08-01T02:08:43.877Z,6.97
2022-08-01T02:11:20.081Z,10.88
2022-08-01T02:14:01.743Z,11.77
2022-08-01T02:16:34.473Z,20.65
2022-08-01T02:19:02.141Z,13.13
2022-08-01T02:21:33.456Z,12.95
2022-08-01T02:24:14.408Z,19.02
2022-08-01T02:26:47.239Z,17.50
2022-08-01T02:29:28.896Z,49.53
2022-08-01T02:31:57.039Z,16.58
2022-08-01T02:34:26.590Z,18.52
2022-08-01T02:36:57.033Z,19.15
2022-08-01T02:39:27.438Z,21.70
2022-08-01T02:41:58.854Z,17.63
2022-08-01T02:44:32.022Z,18.83
2022-08-01T02:47:05.688Z,21.48
2022-08-01T02:49:36.945Z,13.85
2022-08-01T02:52:10.645Z,21.88
2022-08-01T02:54:39.387Z,16.30
2022-08-01T02:57:09.005Z,22.98
2022-08-01T02:59:42.299Z,32.72
2022-08-01T03:02:11.225Z,22.88
2022-08-01T03:04:41.765Z,16.75
2022-08-01T03:07:10.650Z,18.92
2022-08-01T03:09:41.081Z,36.88
2022-08-01T03:12:14.550Z,20.73
2022-08-01T03:14:43.940Z,20.55
2022-08-01T03:17:12.377Z,12.45
2022-08-01T03:19:41.581Z,287.23
2022-08-01T03:22:12.188Z,21.92
2022-08-01T03:24:41.237Z,21.13
2022-08-01T03:27:10.010Z,15.05
2022-08-01T03:29:40.212Z,16.98
2022-08-01T03:32:11.713Z,12.32
2022-08-01T03:34:38.938Z,19.55
2022-08-01T03:37:20.110Z,13.95
2022-08-01T03:39:56.217Z,17.92
2022-08-01T03:42:29.917Z,13.35
2022-08-01T03:45:03.628Z,15.73
2022-08-01T03:47:34.280Z,35.80
2022-08-01T03:50:12.491Z,331.48
2022-08-01T03:52:42.608Z,12.85
2022-08-01T03:55:12.485Z,16.08
2022-08-01T03:57:40.730Z,14.63
2022-08-01T04:00:09.832Z,20.52
2022-08-01T04:02:40.200Z,16.38
2022-08-01T04:05:08.192Z,11.70
2022-08-01T04:07:37.118Z,16.65
2022-08-01T04:10:05.245Z,17.98
2022-08-01T04:12:34.945Z,11.50
2022-08-01T04:15:02.227Z,13.93
2022-08-01T04:17:29.378Z,15.27
2022-08-01T04:19:56.537Z,13.13
2022-08-01T04:22:23.700Z,16.40
2022-08-01T04:24:57.114Z,16.75
2022-08-01T04:27:50.335Z,13.38
2022-08-01T04:30:25.402Z,21.10
2022-08-01T04:32:55.572Z,19.92
2022-08-01T04:36:01.757Z,52.83
2022-08-01T04:38:11.510Z,19.55
2022-08-01T04:40:39.893Z,11.18
2022-08-01T04:43:07.613Z,18.25
2022-08-01T04:45:35.944Z,10.38
2022-08-01T04:48:07.473Z,18.40
2022-08-01T04:50:36.084Z,15.93
2022-08-01T04:53:04.480Z,13.27
2022-08-01T04:55:32.253Z,17.08
2022-08-01T04:57:59.457Z,16.77
2022-08-01T05:00:29.360Z,17.75
2022-08-01T05:02:58.116Z,18.98
2022-08-01T05:05:27.119Z,17.58
2022-08-01T05:07:54.353Z,17.80
2022-08-01T05:10:21.523Z,24.02
2022-08-01T05:12:48.772Z,19.45
2022-08-01T05:15:16.952Z,41.42
2022-08-01T05:17:44.339Z,22.60
2022-08-01T05:20:12.723Z,19.75
2022-08-01T05:22:40.193Z,30.38
2022-08-01T05:25:07.957Z,33.50
2022-08-01T05:27:40.524Z,33.13
2022-08-01T05:30:09.524Z,44.67
2022-08-01T05:32:37.747Z,40.97
2022-08-01T05:35:05.802Z,32.95
2022-08-01T05:37:32.999Z,35.63
2022-08-01T05:40:00.289Z,29.75
2022-08-01T05:42:27.539Z,33.50
2022-08-01T05:44:54.734Z,26.00
2022-08-01T05:47:21.932Z,33.28
2022-08-01T05:49:49.332Z,34.70
2022-08-01T05:52:16.536Z,31.48
2022-08-01T05:54:43.753Z,27.00
2022-08-01T05:57:11.182Z,26.52
2022-08-01T05:59:39.653Z,29.13
2022-08-01T06:02:07.301Z,25.83
2022-08-01T06:04:34.622Z,32.22
2022-08-01T06:07:01.818Z,29.50
2022-08-01T06:09:28.998Z,22.58
2022-08-01T06:11:56.195Z,25.35
2022-08-01T06:14:23.361Z,25.85
2022-08-01T06:16:50.570Z,22.75
2022-08-01T06:19:17.757Z,24.88
2022-08-01T06:21:44.947Z,29.77
2022-08-01T06:24:12.161Z,37.17
2022-08-01T06:26:39.327Z,45.45
2022-08-01T06:29:06.465Z,43.53
2022-08-01T06:31:34.176Z,43.85
2022-08-01T06:34:01.402Z,82.38
2022-08-01T06:36:28.669Z,98.07
2022-08-01T06:38:55.834Z,164.23
2022-08-01T06:41:22.978Z,308.67
2022-08-01T06:43:50.231Z,117.95
2022-08-01T06:46:17.462Z,35.10
2022-08-01T06:48:44.775Z,39.03
2022-08-01T06:51:16.285Z,951.35
2022-08-01T06:53:44.184Z,1395.70
2022-08-01T06:56:12.256Z,1654.47
2022-08-01T06:58:39.465Z,1443.82
2022-08-01T07:01:07.872Z,1398.13
2022-08-01T07:03:53.716Z,1235.50
2022-08-01T07:06:24.326Z,1505.40
2022-08-01T07:08:52.531Z,1999.90
2022-08-01T07:11:20.342Z,1604.20
2022-08-01T07:13:47.555Z,1487.45
2022-08-01T07:16:15.880Z,1641.03
2022-08-01T07:18:43.366Z,1532.82
2022-08-01T07:21:38.961Z,1654.00
2022-08-01T07:23:57.857Z,1313.60
2022-08-01T07:26:27.618Z,1486.25
2022-08-01T07:28:55.287Z,1331.38
2022-08-01T07:31:22.687Z,1495.65
2022-08-01T07:33:50.944Z,1748.20
2022-08-01T07:36:18.736Z,1510.90
2022-08-01T07:38:46.603Z,1651.03
2022-08-01T07:41:14.257Z,1090.38
2022-08-01T07:43:47.273Z,1690.72
2022-08-01T07:46:20.555Z,1113.82
2022-08-01T07:48:47.746Z,1442.82
2022-08-01T07:51:14.936Z,1360.15
2022-08-01T07:53:42.125Z,1134.57
2022-08-01T07:56:09.643Z,1406.10
2022-08-01T07:58:36.906Z,1223.32
2022-08-01T08:01:04.188Z,1083.60
2022-08-01T08:03:31.399Z,992.72
2022-08-01T08:06:00.228Z,1057.65
2022-08-01T08:08:28.330Z,1163.68
2022-08-01T08:10:55.850Z,1244.93
2022-08-01T08:13:23.240Z,1250.60
2022-08-01T08:15:50.437Z,1368.90
2022-08-01T08:18:17.670Z,1152.07
2022-08-01T08:20:45.098Z,1307.25
2022-08-01T08:23:42.955Z,1153.93
2022-08-01T08:26:13.787Z,1262.53
2022-08-01T08:28:41.102Z,1383.10
2022-08-01T08:31:25.443Z,1348.85
2022-08-01T08:33:56.333Z,1305.78
2022-08-01T08:36:28.587Z,868.20
2022-08-01T08:39:01.596Z,847.80
2022-08-01T08:41:37.706Z,1090.72
2022-08-01T08:44:10.423Z,1080.22
2022-08-01T08:46:46.745Z,1999.90
2022-08-01T08:49:19.542Z,1999.90
2022-08-01T08:51:50.348Z,1999.90
2022-08-01T08:54:20.477Z,1999.90
2022-08-01T08:56:48.783Z,1999.90
2022-08-01T08:59:16.155Z,1999.90
2022-08-01T09:01:43.861Z,1999.90
2022-08-01T09:04:11.657Z,1999.90
2022-08-01T09:06:39.770Z,1999.90
2022-08-01T09:09:08.289Z,1999.90
2022-08-01T09:11:36.295Z,1999.90
2022-08-01T09:14:03.949Z,1999.90
2022-08-01T09:16:32.936Z,1999.90
2022-08-01T09:19:40.731Z,1999.90
2022-08-01T09:22:09.224Z,1999.90
2022-08-01T09:24:37.327Z,1999.90
2022-08-01T09:27:22.387Z,1999.90
2022-08-01T09:30:01.439Z,1999.90
2022-08-01T09:32:35.152Z,1999.90
2022-08-01T09:35:30.975Z,1999.90
2022-08-01T09:38:29.599Z,1999.90
2022-08-01T09:40:59.644Z,1999.90
2022-08-01T09:43:32.039Z,1999.90
2022-08-01T09:46:05.100Z,1999.90
2022-08-01T09:48:33.636Z,1999.90
2022-08-01T09:51:07.047Z,1999.90
2022-08-01T09:53:51.057Z,1999.90
2022-08-01T09:56:20.635Z,1999.90
2022-08-01T09:59:00.360Z,1999.90
2022-08-01T10:01:36.013Z,1999.90
2022-08-01T10:04:11.043Z,1999.90
2022-08-01T10:06:40.886Z,1999.90
2022-08-01T10:09:08.968Z,1999.90
2022-08-01T10:11:40.011Z,1999.90
2022-08-01T10:14:08.389Z,1999.90
2022-08-01T10:16:38.601Z,1999.90
2022-08-01T10:19:11.073Z,1999.90
2022-08-01T10:21:57.413Z,1999.90
2022-08-01T10:24:29.255Z,1999.90
2022-08-01T10:27:12.222Z,1999.90
2022-08-01T10:30:05.288Z,1999.90
2022-08-01T10:32:36.064Z,1999.90
2022-08-01T10:35:06.565Z,1999.90
2022-08-01T10:37:51.502Z,1999.90
2022-08-01T10:40:30.560Z,1999.90
2022-08-01T10:42:58.525Z,1999.90
2022-08-01T10:45:30.313Z,1999.90
2022-08-01T10:48:07.109Z,1999.90
2022-08-01T10:50:48.457Z,1999.90
2022-08-01T10:53:31.603Z,1999.90
2022-08-01T10:56:13.070Z,1999.90
2022-08-01T10:58:44.095Z,1999.90
2022-08-01T11:01:29.949Z,1999.90
2022-08-01T11:04:04.224Z,1999.90
2022-08-01T11:06:34.585Z,1999.90
2022-08-01T11:09:06.917Z,1999.90
2022-08-01T11:12:06.071Z,1999.90
2022-08-01T11:14:55.312Z,1999.90
2022-08-01T11:17:54.685Z,1999.90
2022-08-01T11:20:31.370Z,1999.90
2022-08-01T11:23:03.179Z,1999.90
2022-08-01T11:26:05.056Z,1999.90
2022-08-01T11:28:32.235Z,1999.90
2022-08-01T11:31:11.922Z,1999.90
2022-08-01T11:33:46.013Z,1999.90
2022-08-01T11:36:14.688Z,1999.90
2022-08-01T11:38:48.294Z,1999.90
2022-08-01T11:41:15.469Z,1999.90
2022-08-01T11:44:07.072Z,1999.90
2022-08-01T11:46:56.999Z,1999.90
2022-08-01T11:49:25.073Z,1999.90
2022-08-01T11:52:12.082Z,1999.90
2022-08-01T11:55:16.733Z,1999.90
2022-08-01T11:57:44.146Z,1999.90
2022-08-01T12:00:19.903Z,1999.90
2022-08-01T12:02:48.180Z,1999.90
2022-08-01T12:05:21.446Z,1999.90
2022-08-01T12:07:53.633Z,1999.90
2022-08-01T12:10:23.834Z,1999.90
2022-08-01T12:12:57.714Z,1999.90
2022-08-01T12:15:29.864Z,1999.90
2022-08-01T12:17:59.996Z,1999.90
2022-08-01T12:20:38.131Z,1999.90
2022-08-01T12:23:13.172Z,1999.90
2022-08-01T12:25:41.321Z,1999.90
2022-08-01T12:28:10.185Z,1999.90
2022-08-01T12:30:38.638Z,1999.90
2022-08-01T12:33:08.299Z,1999.90
2022-08-01T12:35:37.698Z,1999.90
2022-08-01T12:38:08.380Z,1999.90
2022-08-01T12:40:40.825Z,1999.90
2022-08-01T12:43:27.592Z,1999.90
2022-08-01T12:45:59.486Z,1999.90
2022-08-01T12:48:27.672Z,1999.90
2022-08-01T12:50:58.299Z,1999.90
2022-08-01T12:53:27.029Z,1999.90
2022-08-01T12:56:07.325Z,1999.90
2022-08-01T12:58:35.345Z,1999.90
2022-08-01T13:01:07.949Z,1999.90
2022-08-01T13:03:35.779Z,1999.90
2022-08-01T13:06:15.415Z,1999.90
2022-08-01T13:08:43.225Z,1999.90
2022-08-01T13:11:16.348Z,1999.90
2022-08-01T13:13:51.998Z,1999.90
2022-08-01T13:16:30.988Z,1999.90
2022-08-01T13:19:10.361Z,1999.90
2022-08-01T13:21:53.736Z,1999.90
2022-08-01T13:24:26.906Z,1999.90
2022-08-01T13:26:59.368Z,1999.90
2022-08-01T13:29:40.967Z,1999.90
2022-08-01T13:32:28.537Z,1999.90
2022-08-01T13:35:05.634Z,1999.90
2022-08-01T13:37:33.222Z,1999.90
2022-08-01T13:40:00.587Z,1999.90
2022-08-01T13:42:30.018Z,1999.90
2022-08-01T13:44:57.217Z,1999.90
2022-08-01T13:47:31.438Z,1999.90
2022-08-01T13:50:02.970Z,1999.90
2022-08-01T13:52:30.672Z,1999.90
2022-08-01T13:54:58.499Z,1999.90
2022-08-01T13:57:25.958Z,1999.90
2022-08-01T14:00:07.701Z,1999.90
2022-08-01T14:02:39.267Z,1999.90
2022-08-01T14:05:06.903Z,1999.90
2022-08-01T14:07:34.460Z,1999.90
2022-08-01T14:10:18.051Z,1999.90
2022-08-01T14:12:46.496Z,1999.90
2022-08-01T14:15:19.008Z,1999.90
2022-08-01T14:18:02.573Z,1999.90
2022-08-01T14:20:29.756Z,1999.90
2022-08-01T14:22:57.043Z,1999.90
2022-08-01T14:26:01.619Z,1999.90
2022-08-01T14:28:11.990Z,1999.90
2022-08-01T14:30:39.285Z,1999.90
2022-08-01T14:33:06.854Z,1999.90
2022-08-01T14:36:01.359Z,1999.90
2022-08-01T14:38:31.140Z,1999.90
2022-08-01T14:41:00.203Z,1999.90
2022-08-01T14:43:32.873Z,1999.90
2022-08-01T14:46:02.063Z,1999.90
2022-08-01T14:48:30.160Z,1999.90
2022-08-01T14:50:59.926Z,1999.90
2022-08-01T14:53:27.347Z,1999.90
2022-08-01T14:55:54.540Z,1999.90
2022-08-01T14:58:21.766Z,1999.90
2022-08-01T15:00:49.007Z,1999.90
2022-08-01T15:03:16.401Z,1999.90
2022-08-01T15:05:43.711Z,1999.90
2022-08-01T15:08:10.963Z,1999.90
2022-08-01T15:10:38.242Z,1999.90
2022-08-01T15:13:05.446Z,1999.90
2022-08-01T15:15:32.657Z,1999.90
2022-08-01T15:18:00.066Z,1999.90
2022-08-01T15:20:27.970Z,1999.90
2022-08-01T15:22:55.431Z,1999.90
2022-08-01T15:25:22.959Z,1999.90
2022-08-01T15:27:50.159Z,1999.90
2022-08-01T15:30:17.327Z,1999.90
2022-08-01T15:32:51.185Z,1999.90
2022-08-01T15:35:18.836Z,1999.90
2022-08-01T15:37:46.086Z,1999.90
2022-08-01T15:40:13.366Z,1999.90
2022-08-01T15:42:40.634Z,1999.90
2022-08-01T15:45:20.631Z,1999.90
2022-08-01T15:47:53.005Z,1999.90
2022-08-01T15:50:20.166Z,1999.90
2022-08-01T15:52:47.552Z,1999.90
2022-08-01T15:55:14.769Z,1999.90
2022-08-01T15:57:41.959Z,1999.90
2022-08-01T16:00:10.072Z,1999.90
2022-08-01T16:02:39.116Z,1999.90
2022-08-01T16:05:07.391Z,1999.90
2022-08-01T16:07:34.608Z,1999.90
2022-08-01T16:10:01.839Z,1999.90
2022-08-01T16:12:29.006Z,1999.90
2022-08-01T16:14:57.396Z,1999.90
2022-08-01T16:17:24.801Z,1999.90
2022-08-01T16:19:52.303Z,1999.90
2022-08-01T16:22:19.600Z,1999.90
2022-08-01T16:24:46.849Z,1999.90
2022-08-01T16:27:14.257Z,1999.90
2022-08-01T16:29:41.474Z,1999.90
2022-08-01T16:32:14.025Z,1999.90
2022-08-01T16:34:52.894Z,1999.90
2022-08-01T16:37:20.180Z,1999.90
2022-08-01T16:39:47.654Z,1999.90
2022-08-01T16:42:14.930Z,1999.90
2022-08-01T16:44:42.783Z,1999.90
2022-08-01T16:47:11.227Z,1999.90
2022-08-01T16:49:38.935Z,1999.90
2022-08-01T16:52:07.161Z,1999.90
2022-08-01T16:54:34.761Z,1999.90
2022-08-01T16:57:08.666Z,1999.90
2022-08-01T16:59:41.291Z,1999.90
2022-08-01T17:02:10.778Z,1999.90
2022-08-01T17:04:38.087Z,1999.90
2022-08-01T17:07:05.718Z,1999.90
2022-08-01T17:09:33.283Z,1597.82
2022-08-01T17:12:00.548Z,636.55
2022-08-01T17:14:29.598Z,1999.90
2022-08-01T17:16:56.812Z,1999.90
2022-08-01T17:19:24.214Z,459.90
2022-08-01T17:22:00.730Z,448.08
2022-08-01T17:24:28.064Z,584.78
2022-08-01T17:26:55.274Z,1164.28
2022-08-01T17:29:22.528Z,1087.80
2022-08-01T17:31:49.876Z,937.60
2022-08-01T17:34:17.102Z,780.95
2022-08-01T17:36:44.638Z,409.23
2022-08-01T17:39:13.400Z,718.90
2022-08-01T17:41:41.412Z,671.83
2022-08-01T17:44:09.229Z,1044.25
2022-08-01T17:46:36.442Z,479.60
2022-08-01T17:49:04.225Z,1999.90
2022-08-01T17:51:31.551Z,669.38
2022-08-01T17:53:58.861Z,1999.90
2022-08-01T17:56:27.161Z,1999.90
2022-08-01T17:58:54.727Z,322.23
2022-08-01T18:01:26.325Z,1579.93
2022-08-01T18:03:54.901Z,1559.53
2022-08-01T18:06:23.307Z,674.42
2022-08-01T18:08:55.220Z,1999.90
2022-08-01T18:11:24.564Z,548.50
2022-08-01T18:13:55.227Z,1999.90
2022-08-01T18:16:22.866Z,309.85
2022-08-01T18:18:50.494Z,1345.00
2022-08-01T18:21:17.674Z,1093.88
2022-08-01T18:23:51.797Z,1215.55
2022-08-01T18:26:21.002Z,1355.72
2022-08-01T18:28:48.525Z,1315.05
2022-08-01T18:31:17.737Z,561.90
2022-08-01T18:33:45.360Z,1999.90
2022-08-01T18:36:32.455Z,613.70
2022-08-01T18:39:04.293Z,1999.90
2022-08-01T18:41:33.876Z,1999.90
2022-08-01T18:44:05.538Z,1999.90
2022-08-01T18:46:39.727Z,470.52
2022-08-01T18:49:08.703Z,1999.90
2022-08-01T18:51:43.459Z,548.58
2022-08-01T18:54:12.785Z,1037.10
2022-08-01T18:56:40.165Z,1061.05
2022-08-01T18:59:07.475Z,698.25
2022-08-01T19:01:35.183Z,1023.65
2022-08-01T19:04:02.946Z,897.72
2022-08-01T19:06:30.392Z,1424.30
2022-08-01T19:09:02.107Z,1397.88
2022-08-01T19:11:33.729Z,1020.17
2022-08-01T19:14:02.353Z,1281.95
2022-08-01T19:16:30.047Z,1600.10
2022-08-01T19:18:57.500Z,1514.40
2022-08-01T19:21:25.702Z,1507.90
2022-08-01T19:24:11.358Z,1317.57
2022-08-01T19:26:45.534Z,1550.63
2022-08-01T19:29:19.497Z,1184.72
2022-08-01T19:31:49.213Z,1999.90
2022-08-01T19:34:19.040Z,1999.90
2022-08-01T19:36:48.187Z,1999.90
2022-08-01T19:39:18.023Z,498.83
2022-08-01T19:41:46.273Z,1382.18
2022-08-01T19:44:16.553Z,1521.63
2022-08-01T19:46:44.978Z,1999.90
2022-08-01T19:49:14.325Z,1999.90
2022-08-01T19:51:47.177Z,1999.90
2022-08-01T19:54:17.890Z,1999.90
2022-08-01T19:56:46.996Z,1657.95
2022-08-01T19:59:22.480Z,1629.85
2022-08-01T20:01:52.483Z,1088.00
2022-08-01T20:04:20.118Z,1145.95
2022-08-01T20:06:48.002Z,1526.15
2022-08-01T20:09:15.323Z,1140.32
2022-08-01T20:11:50.790Z,1147.38
2022-08-01T20:14:23.290Z,1022.65
2022-08-01T20:16:52.408Z,1458.85
2022-08-01T20:19:22.099Z,1654.03
2022-08-01T20:22:05.918Z,1260.35
2022-08-01T20:24:41.440Z,1105.97
2022-08-01T20:27:12.698Z,1094.60
2022-08-01T20:29:40.735Z,1263.28
2022-08-01T20:32:09.109Z,1259.25
2022-08-01T20:34:38.446Z,1306.05
2022-08-01T20:37:13.194Z,1353.40
2022-08-01T20:39:43.890Z,1400.95
2022-08-01T20:42:13.785Z,1287.95
2022-08-01T20:44:41.979Z,1313.82
2022-08-01T20:47:09.585Z,1255.60
2022-08-01T20:49:37.766Z,1322.68
2022-08-01T20:52:11.586Z,1229.85
2022-08-01T20:54:41.165Z,1106.40
2022-08-01T20:57:14.217Z,1234.90
2022-08-01T20:59:55.662Z,1279.22
2022-08-01T21:02:41.511Z,1339.35
2022-08-01T21:05:12.662Z,1365.70
2022-08-01T21:07:51.302Z,1288.70
2022-08-01T21:10:21.124Z,1344.70
2022-08-01T21:12:58.754Z,1367.07
2022-08-01T21:15:33.184Z,1309.05
2022-08-01T21:18:16.207Z,1287.97
2022-08-01T21:20:51.990Z,1443.18
2022-08-01T21:23:43.936Z,1278.43
2022-08-01T21:26:13.511Z,1193.55
2022-08-01T21:28:53.953Z,1206.55
2022-08-01T21:31:23.035Z,1167.50
2022-08-01T21:34:02.354Z,1119.75
2022-08-01T21:36:31.578Z,1099.80
2022-08-01T21:39:00.323Z,1031.25
2022-08-01T21:41:56.270Z,998.92
2022-08-01T21:44:17.389Z,963.65
2022-08-01T21:46:47.069Z,832.58
2022-08-01T21:49:14.386Z,919.20
2022-08-01T21:51:51.997Z,1022.58
2022-08-01T21:54:34.298Z,1019.90
2022-08-01T21:57:25.061Z,840.90
2022-08-01T22:00:25.403Z,931.85
2022-08-01T22:03:08.443Z,735.15
2022-08-01T22:05:49.840Z,767.20
2022-08-01T22:08:26.789Z,639.13
2022-08-01T22:10:58.724Z,667.20
2022-08-01T22:13:26.485Z,682.83
2022-08-01T22:15:56.888Z,748.65
2022-08-01T22:18:26.170Z,816.78
2022-08-01T22:20:54.132Z,768.92
2022-08-01T22:23:25.302Z,762.72
2022-08-01T22:25:54.343Z,743.03
2022-08-01T22:28:22.935Z,578.90
2022-08-01T22:30:52.238Z,546.50
2022-08-01T22:33:19.929Z,407.20
2022-08-01T22:35:50.990Z,405.67
2022-08-01T22:38:20.209Z,422.05
2022-08-01T22:40:53.861Z,560.53
2022-08-01T22:43:49.900Z,580.00
2022-08-01T22:46:34.235Z,647.10
2022-08-01T22:49:14.228Z,462.67
2022-08-01T22:51:41.392Z,446.38
2022-08-01T22:54:12.767Z,595.08
2022-08-01T22:56:46.466Z,511.90
2022-08-01T22:59:20.170Z,774.70
2022-08-01T23:01:50.845Z,1161.28
2022-08-01T23:04:33.164Z,1130.05
2022-08-01T23:07:05.071Z,886.72
2022-08-01T23:09:52.972Z,524.63
2022-08-01T23:12:26.934Z,498.58
2022-08-01T23:14:58.962Z,511.77
2022-08-01T23:17:29.450Z,412.05
2022-08-01T23:20:02.321Z,313.33
2022-08-01T23:22:32.774Z,229.73
2022-08-01T23:25:04.955Z,179.85
2022-08-01T23:27:51.813Z,158.35
2022-08-01T23:30:30.994Z,191.13
2022-08-01T23:32:58.975Z,152.13
2022-08-01T23:35:27.150Z,157.23
2022-08-01T23:38:02.595Z,487.63
2022-08-01T23:40:34.954Z,790.75
2022-08-01T23:43:04.062Z,933.75
2022-08-01T23:46:01.875Z,900.35
2022-08-01T23:48:19.371Z,972.58
2022-08-01T23:50:46.666Z,994.35
2022-08-01T23:53:14.014Z,894.88
2022-08-01T23:55:43.319Z,896.90
2022-08-01T23:58:11.658Z,1017.47
